KAKQ

Details ICAO KAKQ
Name WAKEFIELD MUNI
Region United States
Timezone America/New_York (UTC-5.0)
Plans Departing 0
Arriving 2
Stats Elevation 113 ft / 34 m (AMSL)
Location 36.987217° -77.001116°
Runways 1
Magnetic Variation 10.467° W
Sunrise 2017-12-13 12:14:11 UTC / 2017-12-13 07:14:11 Local
Sunset 2017-12-13 21:53:16 UTC / 2017-12-13 16:53:16 Local
Advertisement - Login to hide

Runways

ID Width Length Bearing (true) Bearing (mag) Surface Threshold Offset Overrun Length
02 75 ft / 23 m 4,344 ft / 1,324 m 16.75° 27.22° Asphalt 298 ft / 91 m 0 ft / 0 m
20 75 ft / 23 m 4,344 ft / 1,324 m 196.75° 207.22° Asphalt 470 ft / 143 m 0 ft / 0 m

Map

Weather


0- 5 10 15 20 25 30 35+ Temperature / ° C

Clouds and Precipitation
Forecast for 2017-12-14 00:00 UTC. Updated an hour ago

Ground ~20,000 ft ~40,000 ft Winds

METAR

KAKQ 132154Z AUTO 22005KT 10SM CLR 02/M12 A2983 RMK AO2 SLP104 T00171122 TSNO $

TAF

Not found

Frequencies

Recorded 128.32 MHz ASOS
Approach 127.90 MHz NORFOLK APP/DEP
Unicom 122.80 MHz CTAF/UNICOM
Warning: Do not use this data for real-world aviation or navigation. No guarantee of current accuracy is given.